Disclaimer

Please do not use the information listed here in-flight or in-navigation, as they are not provided to us by the airports but are provided by volunteers, so they might be outdated.

Search


Regions


Airport information page

Radio informations:
IPPOKRATIS TWR - 121.05 MHz
Approach (APP) - 119.95 MHz
IPPOKRATIS RDO - 5637 MHz

Airport informations:
Latitude: 36° 47' 36.01" N
Longitude: 027° 05' 30.00" E
Elevation: 412 feet - 126 meters
Operating hours: Remarks
Operating agency: Civil government, landing fees and diplomatic clearance may be required
Timezone: UTC+2(+3DT) - Last Sunday in March to last Sunday in October
Fuel: Jet A1, without icing nhibitor.

Runway information:
14/32 - 7841 x 148 feet< - >2390 x 45 meters

Recent METARs:
LGKO 201450Z 14009KT 9999 FEW016 19/16 Q1018
LGKO 201520Z 13009KT 9999 FEW016 19/16 Q1018
LGKO 201550Z 14010KT 9999 FEW016 19/16 Q1018

Airport on the map: